»·PEaware :: DPJ213 KASE-KJAC

DPJ213 :: KASE-KJAC

FLIGHT INFORMATION

Flight Status: Arrived
Operator: Unknown
More flights by this operator :: More flights under this callsign
Pilot: Tanner C. (11250)
Aircraft: GULFSTREAM G-1159C GULFSTREAM 4
(GLF4)
More flights by this aircraft type
Origin: KASE Aspen-Pitkin Co/Sardy
United States
Destination: KJAC Jackson Hole
United States
More flights between these airports :: More routes between these airports
Route: PITKN4 EKR DNW
File this flight plan on PilotEdge
Remarks:
Altitude:
(Current/Filed)
38,000ft
Speed:
(Current/Filed)
500kts
Departed: 16-May-18 06:16 PM
Arrived: 16-May-18 07:36 PM
Distance/Time
Traveled:
316nm/1:19
Distance/Time
To Go:
Arrived

Flight Plot

Page will automatically refresh every two minutes.

Flight plan parsing failed; only flown route is shown


Map Options




Map Legend


Flown Route
Filed Route
Departure Airport
Arrival Airport
Navaid (VOR, NDB)
Fix

Horizontal Profiles

Position Reports

Time Latitude Longitude Heading Altitude Ground
Speed
16-May-18 18:04 39.221930 -106.866553 249 7844ft 0kts
16-May-18 18:05 39.221930 -106.866553 249 7844ft 0kts
16-May-18 18:06 39.221930 -106.866553 249 7844ft 0kts
16-May-18 18:07 39.221930 -106.866553 249 7844ft 0kts
16-May-18 18:08 39.220732 -106.866489 159 7844ft 22kts
16-May-18 18:09 39.215760 -106.864109 156 7844ft 11kts
16-May-18 18:10 39.214291 -106.863416 159 7844ft 3kts
16-May-18 18:11 39.212757 -106.862686 159 7844ft 5kts
16-May-18 18:12 39.212662 -106.862642 159 7844ft 0kts
16-May-18 18:13 39.212606 -106.862615 159 7844ft 3kts
16-May-18 18:14 39.212250 -106.862530 178 7844ft 0kts
16-May-18 18:15 39.211819 -106.863105 272 7844ft 6kts
16-May-18 18:16 39.219608 -106.867178 339 7844ft 146kts
16-May-18 18:17 39.276369 -106.891846 319 11024ft 275kts
16-May-18 18:18 39.321129 -106.986879 296 14714ft 353kts
16-May-18 18:19 39.368772 -107.106677 294 18154ft 398kts
16-May-18 18:20 39.371004 -107.242835 259 21896ft 398kts
16-May-18 18:21 39.345020 -107.382556 257 24891ft 410kts
16-May-18 18:22 39.318839 -107.527539 271 27788ft 422kts
16-May-18 18:23 39.375343 -107.643799 320 30372ft 443kts
16-May-18 18:24 39.485995 -107.702410 338 32274ft 468kts
16-May-18 18:25 39.610967 -107.750863 339 33395ft 478kts
16-May-18 18:26 39.735417 -107.798080 339 35417ft 463kts
16-May-18 18:27 39.857543 -107.844604 339 36956ft 460kts
16-May-18 18:28 39.980633 -107.891661 339 37727ft 465kts
16-May-18 18:29 40.101188 -107.945819 331 38022ft 464kts
16-May-18 18:30 40.214685 -108.013625 331 38021ft 466kts
16-May-18 18:31 40.331881 -108.084487 331 38021ft 467kts
16-May-18 18:32 40.448750 -108.155435 331 38020ft 467kts
16-May-18 18:33 40.566101 -108.226952 331 38019ft 467kts
16-May-18 18:34 40.663379 -108.286433 331 38066ft 468kts
16-May-18 18:35 40.781973 -108.359239 331 38073ft 471kts
16-May-18 18:36 40.900526 -108.432294 331 38072ft 472kts
16-May-18 18:37 41.018830 -108.505488 331 38059ft 472kts
16-May-18 18:38 41.130364 -108.574755 331 38017ft 472kts
16-May-18 18:39 41.248275 -108.648269 331 38016ft 472kts
16-May-18 18:40 41.360555 -108.718554 330 38024ft 475kts
16-May-18 18:41 41.480152 -108.793707 330 38023ft 476kts
16-May-18 18:42 41.599579 -108.869065 330 38022ft 476kts
16-May-18 18:43 41.718817 -108.944613 330 38021ft 476kts
16-May-18 18:44 41.837876 -109.020360 330 38021ft 477kts
16-May-18 18:45 41.956125 -109.095903 330 38020ft 477kts
16-May-18 18:46 42.075016 -109.172172 330 38020ft 477kts
16-May-18 18:47 42.185909 -109.243492 329 38016ft 482kts
16-May-18 18:48 42.306787 -109.321772 329 37944ft 491kts
16-May-18 18:49 42.428732 -109.400942 329 37437ft 482kts
16-May-18 18:50 42.546585 -109.477843 329 35286ft 473kts
16-May-18 18:51 42.663954 -109.554752 329 33151ft 481kts
16-May-18 18:52 42.785473 -109.634714 330 30960ft 504kts
16-May-18 18:53 42.904626 -109.713425 329 28838ft 512kts
16-May-18 18:54 43.032069 -109.798001 330 26573ft 518kts
16-May-18 18:55 43.153322 -109.878843 330 24397ft 523kts
16-May-18 18:56 43.281207 -109.964111 331 22051ft 528kts
16-May-18 18:57 43.404946 -110.047735 334 21119ft 465kts
16-May-18 18:58 43.514763 -110.121632 334 21124ft 425kts
16-May-18 18:59 43.616382 -110.190354 335 21112ft 338kts
16-May-18 19:00 43.691728 -110.241121 336 21107ft 280kts
16-May-18 19:01 43.780208 -110.324121 303 21140ft 496kts
16-May-18 19:02 43.785123 -110.488262 235 21107ft 405kts
16-May-18 19:03 43.680495 -110.545610 192 21129ft 431kts
16-May-18 19:04 43.566337 -110.570487 191 21112ft 426kts
16-May-18 19:05 43.454551 -110.595611 191 21099ft 407kts
16-May-18 19:06 43.342137 -110.639124 217 21426ft 457kts
16-May-18 19:07 43.226663 -110.705947 191 19904ft 468kts
16-May-18 19:08 43.115797 -110.731536 191 19051ft 403kts
16-May-18 19:09 43.005790 -110.755729 191 19044ft 403kts
16-May-18 19:10 42.898046 -110.755601 153 19041ft 415kts
16-May-18 19:11 42.855255 -110.621523 81 19050ft 442kts
16-May-18 19:12 42.878042 -110.458112 80 19101ft 442kts
16-May-18 19:13 42.900570 -110.298986 81 19144ft 442kts
16-May-18 19:14 42.925876 -110.136459 68 19125ft 445kts
16-May-18 19:15 43.018287 -110.044122 3 19120ft 440kts
16-May-18 19:16 43.116289 -110.108617 299 19069ft 415kts
16-May-18 19:17 43.162195 -110.247133 292 18615ft 414kts
16-May-18 19:18 43.203659 -110.393895 291 16794ft 408kts
16-May-18 19:19 43.240852 -110.535279 292 14937ft 397kts
16-May-18 19:20 43.276402 -110.673201 291 13976ft 390kts
16-May-18 19:21 43.312245 -110.811655 291 13973ft 391kts
16-May-18 19:22 43.353504 -110.948248 289 13961ft 392kts
16-May-18 19:23 43.323051 -111.083912 220 13824ft 396kts
16-May-18 19:24 43.220376 -111.092673 149 13023ft 396kts
16-May-18 19:25 43.179110 -110.967125 77 12237ft 382kts
16-May-18 19:26 43.249663 -110.875848 16 11465ft 368kts
16-May-18 19:27 43.347510 -110.840311 15 10802ft 364kts
16-May-18 19:28 43.440458 -110.806795 15 9856ft 295kts
16-May-18 19:29 43.505791 -110.784023 15 8644ft 196kts
16-May-18 19:30 43.550638 -110.763747 16 7540ft 180kts
16-May-18 19:31 43.591234 -110.745431 20 6648ft 174kts
16-May-18 19:32 43.632844 -110.730767 331 7358ft 188kts
16-May-18 19:33 43.608561 -110.790928 193 7860ft 279kts
16-May-18 19:34 43.558188 -110.773589 87 7257ft 194kts
16-May-18 19:35 43.588593 -110.746819 21 6680ft 155kts
16-May-18 19:36 43.614955 -110.733985 45 6442ft 20kts

Navigation Log

Ident Type
Flight plan parsing failed, navigation log unavailable